sensor_id;sensor_type;location;lat;lon;timestamp;pressure;altitude;pressure_sealevel;temperature;humidity
75972;BME280;64651;47.540;19.088;2023-03-13T00:01:47;100643.81;;;5.58;46.13
75972;BME280;64651;47.540;19.088;2023-03-13T00:06:50;100644.69;;;5.47;46.73
75972;BME280;64651;47.540;19.088;2023-03-13T00:11:52;100655.22;;;5.44;46.96
75972;BME280;64651;47.540;19.088;2023-03-13T00:16:54;100665.31;;;5.43;47.37
75972;BME280;64651;47.540;19.088;2023-03-13T00:21:56;100651.06;;;5.53;47.49
75972;BME280;64651;47.540;19.088;2023-03-13T00:26:58;100656.28;;;5.54;47.77
75972;BME280;64651;47.540;19.088;2023-03-13T00:32:04;100643.47;;;5.55;48.17
75972;BME280;64651;47.540;19.088;2023-03-13T00:37:06;100650.13;;;5.47;48.57
75972;BME280;64651;47.540;19.088;2023-03-13T00:42:08;100638.38;;;5.47;48.73
75972;BME280;64651;47.540;19.088;2023-03-13T00:47:11;100637.91;;;5.38;49.08
75972;BME280;64651;47.540;19.088;2023-03-13T00:52:13;100646.22;;;5.31;49.46
75972;BME280;64651;47.540;19.088;2023-03-13T00:57:15;100626.91;;;5.33;49.65
75972;BME280;64651;47.540;19.088;2023-03-13T01:02:17;100637.91;;;5.38;50.19
75972;BME280;64651;47.540;19.088;2023-03-13T01:07:20;100624.03;;;5.40;50.54
75972;BME280;64651;47.540;19.088;2023-03-13T01:12:22;100595.97;;;5.27;50.95
75972;BME280;64651;47.540;19.088;2023-03-13T01:17:24;100600.38;;;5.17;51.73
75972;BME280;64651;47.540;19.088;2023-03-13T01:22:26;100618.03;;;5.14;51.95
75972;BME280;64651;47.540;19.088;2023-03-13T01:27:29;100604.75;;;5.18;52.12
75972;BME280;64651;47.540;19.088;2023-03-13T01:32:34;100600.56;;;5.27;52.17
75972;BME280;64651;47.540;19.088;2023-03-13T01:37:37;100591.09;;;5.29;52.24
75972;BME280;64651;47.540;19.088;2023-03-13T01:43:25;100580.53;;;5.33;52.23
75972;BME280;64651;47.540;19.088;2023-03-13T01:54:14;100577.19;;;5.43;52.43
75972;BME280;64651;47.540;19.088;2023-03-13T01:59:24;100584.09;;;5.34;52.79
75972;BME280;64651;47.540;19.088;2023-03-13T02:04:30;100574.19;;;5.44;52.71
75972;BME280;64651;47.540;19.088;2023-03-13T02:09:38;100574.06;;;5.51;52.61
75972;BME280;64651;47.540;19.088;2023-03-13T02:14:44;100563.28;;;5.44;52.85
75972;BME280;64651;47.540;19.088;2023-03-13T02:19:49;100579.66;;;5.44;53.01
75972;BME280;64651;47.540;19.088;2023-03-13T02:30:26;100575.25;;;5.55;53.00
75972;BME280;64651;47.540;19.088;2023-03-13T02:35:30;100576.31;;;5.54;53.12
75972;BME280;64651;47.540;19.088;2023-03-13T02:40:35;100570.19;;;5.47;53.24
75972;BME280;64651;47.540;19.088;2023-03-13T02:45:38;100587.50;;;5.41;53.60
75972;BME280;64651;47.540;19.088;2023-03-13T02:50:41;100565.13;;;5.27;54.04
75972;BME280;64651;47.540;19.088;2023-03-13T02:55:43;100575.09;;;5.21;54.67
75972;BME280;64651;47.540;19.088;2023-03-13T03:00:45;100568.94;;;5.14;55.09
75972;BME280;64651;47.540;19.088;2023-03-13T03:05:47;100560.53;;;5.04;55.54
75972;BME280;64651;47.540;19.088;2023-03-13T03:10:50;100588.28;;;5.01;55.86
75972;BME280;64651;47.540;19.088;2023-03-13T03:15:52;100588.75;;;4.98;56.14
75972;BME280;64651;47.540;19.088;2023-03-13T03:20:54;100595.16;;;5.04;55.97
75972;BME280;64651;47.540;19.088;2023-03-13T03:25:57;100593.00;;;4.94;56.18
75972;BME280;64651;47.540;19.088;2023-03-13T03:31:06;100608.09;;;4.85;56.57
75972;BME280;64651;47.540;19.088;2023-03-13T03:36:11;100594.78;;;4.88;56.44
75972;BME280;64651;47.540;19.088;2023-03-13T03:41:15;100602.25;;;4.70;57.03
75972;BME280;64651;47.540;19.088;2023-03-13T03:46:18;100598.44;;;4.47;57.93
75972;BME280;64651;47.540;19.088;2023-03-13T03:51:20;100588.97;;;4.38;58.39
75972;BME280;64651;47.540;19.088;2023-03-13T03:56:23;100591.69;;;4.27;59.51
75972;BME280;64651;47.540;19.088;2023-03-13T04:01:30;100607.25;;;4.08;60.43
75972;BME280;64651;47.540;19.088;2023-03-13T04:06:33;100617.53;;;4.06;60.90
75972;BME280;64651;47.540;19.088;2023-03-13T04:11:35;100631.47;;;3.98;61.35
75972;BME280;64651;47.540;19.088;2023-03-13T04:16:37;100630.53;;;4.04;61.39
75972;BME280;64651;47.540;19.088;2023-03-13T04:21:39;100636.41;;;4.19;61.28
75972;BME280;64651;47.540;19.088;2023-03-13T04:26:41;100627.66;;;4.29;61.00
75972;BME280;64651;47.540;19.088;2023-03-13T04:31:46;100646.50;;;4.30;61.71
75972;BME280;64651;47.540;19.088;2023-03-13T04:36:48;100649.97;;;4.37;61.63
75972;BME280;64651;47.540;19.088;2023-03-13T04:41:52;100641.22;;;4.47;61.49
75972;BME280;64651;47.540;19.088;2023-03-13T04:46:54;100642.53;;;4.56;61.00
75972;BME280;64651;47.540;19.088;2023-03-13T04:51:56;100643.00;;;4.65;60.47
75972;BME280;64651;47.540;19.088;2023-03-13T04:56:58;100649.06;;;4.67;60.63
75972;BME280;64651;47.540;19.088;2023-03-13T05:02:00;100654.97;;;4.64;61.00
75972;BME280;64651;47.540;19.088;2023-03-13T05:07:03;100655.13;;;4.69;61.19
75972;BME280;64651;47.540;19.088;2023-03-13T05:12:05;100676.22;;;4.73;60.72
75972;BME280;64651;47.540;19.088;2023-03-13T05:17:08;100681.06;;;4.71;59.93
75972;BME280;64651;47.540;19.088;2023-03-13T05:22:13;100681.56;;;4.80;59.84
75972;BME280;64651;47.540;19.088;2023-03-13T05:27:15;100669.59;;;4.81;60.61
75972;BME280;64651;47.540;19.088;2023-03-13T05:32:17;100677.16;;;4.79;60.26
75972;BME280;64651;47.540;19.088;2023-03-13T05:37:20;100686.28;;;4.73;60.18
75972;BME280;64651;47.540;19.088;2023-03-13T05:42:22;100693.50;;;4.67;60.93
75972;BME280;64651;47.540;19.088;2023-03-13T05:47:24;100686.28;;;4.61;61.20
75972;BME280;64651;47.540;19.088;2023-03-13T05:52:27;100690.28;;;4.59;61.87
75972;BME280;64651;47.540;19.088;2023-03-13T05:57:29;100689.69;;;4.57;62.14
75972;BME280;64651;47.540;19.088;2023-03-13T06:02:32;100680.72;;;4.68;61.84
75972;BME280;64651;47.540;19.088;2023-03-13T06:07:34;100678.94;;;4.62;61.96
75972;BME280;64651;47.540;19.088;2023-03-13T06:12:37;100682.41;;;4.80;61.34
75972;BME280;64651;47.540;19.088;2023-03-13T06:17:39;100684.28;;;4.80;61.33
75972;BME280;64651;47.540;19.088;2023-03-13T06:22:45;100681.28;;;4.70;61.41
75972;BME280;64651;47.540;19.088;2023-03-13T06:27:47;100685.44;;;4.61;61.75
75972;BME280;64651;47.540;19.088;2023-03-13T06:32:49;100692.06;;;4.65;61.02
75972;BME280;64651;47.540;19.088;2023-03-13T06:37:51;100678.84;;;4.80;61.05
75972;BME280;64651;47.540;19.088;2023-03-13T06:42:55;100679.66;;;4.80;60.76
75972;BME280;64651;47.540;19.088;2023-03-13T06:47:57;100684.53;;;4.90;60.79
75972;BME280;64651;47.540;19.088;2023-03-13T06:52:59;100683.69;;;4.89;60.91
75972;BME280;64651;47.540;19.088;2023-03-13T06:58:01;100694.72;;;4.83;61.10
75972;BME280;64651;47.540;19.088;2023-03-13T07:03:03;100687.97;;;4.85;60.60
75972;BME280;64651;47.540;19.088;2023-03-13T07:08:05;100686.69;;;5.00;59.92
75972;BME280;64651;47.540;19.088;2023-03-13T07:13:08;100682.06;;;5.12;59.59
75972;BME280;64651;47.540;19.088;2023-03-13T07:18:10;100695.34;;;5.31;58.94
75972;BME280;64651;47.540;19.088;2023-03-13T07:23:12;100680.75;;;5.38;58.40
75972;BME280;64651;47.540;19.088;2023-03-13T07:28:14;100676.12;;;5.26;57.76
75972;BME280;64651;47.540;19.088;2023-03-13T07:33:17;100667.47;;;5.29;57.22
75972;BME280;64651;47.540;19.088;2023-03-13T07:38:20;100657.13;;;5.43;56.57
75972;BME280;64651;47.540;19.088;2023-03-13T07:43:23;100663.72;;;5.70;55.59
75972;BME280;64651;47.540;19.088;2023-03-13T07:48:34;100660.37;;;5.80;55.13
75972;BME280;64651;47.540;19.088;2023-03-13T07:53:36;100640.19;;;5.81;54.82
75972;BME280;64651;47.540;19.088;2023-03-13T07:58:40;100633.31;;;5.90;54.16
75972;BME280;64651;47.540;19.088;2023-03-13T08:03:43;100639.91;;;6.06;53.74
75972;BME280;64651;47.540;19.088;2023-03-13T08:08:46;100633.06;;;6.20;53.53
75972;BME280;64651;47.540;19.088;2023-03-13T08:13:48;100614.03;;;6.25;52.74
75972;BME280;64651;47.540;19.088;2023-03-13T08:18:53;100619.59;;;6.47;51.93
75972;BME280;64651;47.540;19.088;2023-03-13T08:23:58;100606.34;;;6.72;51.00
75972;BME280;64651;47.540;19.088;2023-03-13T08:29:07;100603.22;;;9.39;45.56
75972;BME280;64651;47.540;19.088;2023-03-13T08:34:11;100604.13;;;7.90;46.62
75972;BME280;64651;47.540;19.088;2023-03-13T08:39:16;100598.78;;;7.56;47.94
75972;BME280;64651;47.540;19.088;2023-03-13T08:44:19;100594.44;;;8.63;45.62
75972;BME280;64651;47.540;19.088;2023-03-13T08:49:23;100588.28;;;11.49;38.05
75972;BME280;64651;47.540;19.088;2023-03-13T08:54:25;100575.03;;;13.40;34.34
75972;BME280;64651;47.540;19.088;2023-03-13T08:59:28;100556.22;;;14.60;32.49
75972;BME280;64651;47.540;19.088;2023-03-13T09:04:30;100575.19;;;12.96;34.66
75972;BME280;64651;47.540;19.088;2023-03-13T09:09:32;100559.97;;;15.29;31.28
75972;BME280;64651;47.540;19.088;2023-03-13T09:14:34;100561.28;;;14.72;31.23
75972;BME280;64651;47.540;19.088;2023-03-13T09:19:37;100552.56;;;14.08;31.59
75972;BME280;64651;47.540;19.088;2023-03-13T09:24:55;100555.53;;;14.68;30.08
75972;BME280;64651;47.540;19.088;2023-03-13T09:29:57;100540.50;;;14.88;29.82
75972;BME280;64651;47.540;19.088;2023-03-13T09:34:59;100537.00;;;14.12;31.10
75972;BME280;64651;47.540;19.088;2023-03-13T09:40:02;100521.81;;;15.89;29.26
75972;BME280;64651;47.540;19.088;2023-03-13T09:45:07;100529.06;;;16.35;27.89
75972;BME280;64651;47.540;19.088;2023-03-13T09:50:33;100519.72;;;18.02;26.09
75972;BME280;64651;47.540;19.088;2023-03-13T09:55:37;100512.41;;;16.79;27.55
75972;BME280;64651;47.540;19.088;2023-03-13T10:00:41;100519.47;;;17.16;27.47
75972;BME280;64651;47.540;19.088;2023-03-13T10:05:56;100498.03;;;19.91;23.87
75972;BME280;64651;47.540;19.088;2023-03-13T10:16:10;100485.97;;;16.37;27.99
75972;BME280;64651;47.540;19.088;2023-03-13T10:21:20;100472.53;;;19.42;24.52
75972;BME280;64651;47.540;19.088;2023-03-13T10:26:28;100476.50;;;20.65;23.07
75972;BME280;64651;47.540;19.088;2023-03-13T10:31:32;100470.97;;;20.03;23.86
75972;BME280;64651;47.540;19.088;2023-03-13T10:36:48;100465.03;;;20.46;23.37
75972;BME280;64651;47.540;19.088;2023-03-13T10:42:07;100459.53;;;20.17;23.30
75972;BME280;64651;47.540;19.088;2023-03-13T10:47:14;100460.87;;;18.55;25.48
75972;BME280;64651;47.540;19.088;2023-03-13T10:52:42;100452.94;;;19.21;25.24
75972;BME280;64651;47.540;19.088;2023-03-13T10:57:58;100456.69;;;18.87;24.72
75972;BME280;64651;47.540;19.088;2023-03-13T11:03:05;100450.59;;;18.94;24.94
75972;BME280;64651;47.540;19.088;2023-03-13T11:08:26;100429.78;;;20.00;23.63
75972;BME280;64651;47.540;19.088;2023-03-13T11:13:39;100429.12;;;20.36;23.40
75972;BME280;64651;47.540;19.088;2023-03-13T11:24:42;100408.34;;;22.79;20.54
75972;BME280;64651;47.540;19.088;2023-03-13T11:30:03;100406.84;;;21.70;21.43
75972;BME280;64651;47.540;19.088;2023-03-13T11:52:22;100369.06;;;22.94;20.69
75972;BME280;64651;47.540;19.088;2023-03-13T12:02:57;100346.47;;;25.02;18.75
75972;BME280;64651;47.540;19.088;2023-03-13T12:08:04;100341.63;;;22.41;21.32
75972;BME280;64651;47.540;19.088;2023-03-13T12:18:29;100313.28;;;19.68;24.92
75972;BME280;64651;47.540;19.088;2023-03-13T12:28:44;100304.53;;;24.06;19.69
75972;BME280;64651;47.540;19.088;2023-03-13T12:33:58;100286.28;;;24.61;18.85
75972;BME280;64651;47.540;19.088;2023-03-13T12:44:49;100274.69;;;23.79;20.15
75972;BME280;64651;47.540;19.088;2023-03-13T12:50:32;100247.69;;;25.15;19.19
75972;BME280;64651;47.540;19.088;2023-03-13T13:01:16;100219.41;;;21.49;22.54
75972;BME280;64651;47.540;19.088;2023-03-13T13:06:21;100207.72;;;23.42;20.50
75972;BME280;64651;47.540;19.088;2023-03-13T13:16:41;100203.88;;;23.93;20.41
75972;BME280;64651;47.540;19.088;2023-03-13T13:21:45;100212.00;;;18.63;26.81
75972;BME280;64651;47.540;19.088;2023-03-13T13:26:47;100218.03;;;16.74;30.03
75972;BME280;64651;47.540;19.088;2023-03-13T13:36:54;100183.28;;;21.60;23.81
75972;BME280;64651;47.540;19.088;2023-03-13T13:41:56;100174.97;;;24.90;20.24
75972;BME280;64651;47.540;19.088;2023-03-13T13:46:58;100159.06;;;20.32;25.55
75972;BME280;64651;47.540;19.088;2023-03-13T14:02:18;100146.09;;;16.73;31.48
75972;BME280;64651;47.540;19.088;2023-03-13T14:07:28;100128.63;;;18.50;29.11
75972;BME280;64651;47.540;19.088;2023-03-13T14:12:36;100119.84;;;18.69;29.15
75972;BME280;64651;47.540;19.088;2023-03-13T14:22:50;100138.56;;;16.90;31.75
75972;BME280;64651;47.540;19.088;2023-03-13T14:27:55;100142.28;;;17.37;30.85
75972;BME280;64651;47.540;19.088;2023-03-13T14:32:57;100136.50;;;17.68;30.38
75972;BME280;64651;47.540;19.088;2023-03-13T14:38:02;100143.66;;;16.62;32.76
75972;BME280;64651;47.540;19.088;2023-03-13T14:43:17;100103.16;;;17.42;31.34
75972;BME280;64651;47.540;19.088;2023-03-13T14:48:33;100151.91;;;16.37;33.51
75972;BME280;64651;47.540;19.088;2023-03-13T14:53:35;100132.84;;;17.13;32.63
75972;BME280;64651;47.540;19.088;2023-03-13T14:58:38;100130.44;;;16.77;33.35
75972;BME280;64651;47.540;19.088;2023-03-13T15:03:44;100133.31;;;16.54;33.80
75972;BME280;64651;47.540;19.088;2023-03-13T15:14:40;100117.41;;;16.12;35.08
75972;BME280;64651;47.540;19.088;2023-03-13T15:19:47;100103.91;;;16.45;34.50
75972;BME280;64651;47.540;19.088;2023-03-13T15:24:50;100092.03;;;16.70;34.09
75972;BME280;64651;47.540;19.088;2023-03-13T15:30:07;100087.91;;;17.49;32.99
75972;BME280;64651;47.540;19.088;2023-03-13T15:35:30;100067.34;;;16.34;34.81
75972;BME280;64651;47.540;19.088;2023-03-13T15:40:32;100085.69;;;15.48;36.60
75972;BME280;64651;47.540;19.088;2023-03-13T15:45:39;100072.44;;;15.05;37.75
75972;BME280;64651;47.540;19.088;2023-03-13T15:50:43;100076.12;;;14.70;38.51
75972;BME280;64651;47.540;19.088;2023-03-13T15:55:47;100062.94;;;14.53;38.74
75972;BME280;64651;47.540;19.088;2023-03-13T16:00:50;100065.28;;;14.37;39.07
75972;BME280;64651;47.540;19.088;2023-03-13T16:05:53;100061.78;;;14.32;39.12
75972;BME280;64651;47.540;19.088;2023-03-13T16:10:56;100062.00;;;14.21;39.44
75972;BME280;64651;47.540;19.088;2023-03-13T16:15:58;100063.75;;;14.17;39.80
75972;BME280;64651;47.540;19.088;2023-03-13T16:21:00;100052.28;;;14.10;40.20
75972;BME280;64651;47.540;19.088;2023-03-13T16:26:04;100065.13;;;14.06;40.46
75972;BME280;64651;47.540;19.088;2023-03-13T16:31:17;100056.66;;;13.89;41.14
75972;BME280;64651;47.540;19.088;2023-03-13T16:36:24;100044.28;;;13.73;41.65
75972;BME280;64651;47.540;19.088;2023-03-13T16:41:29;100051.44;;;13.74;41.87
75972;BME280;64651;47.540;19.088;2023-03-13T16:46:37;100069.47;;;13.58;42.51
75972;BME280;64651;47.540;19.088;2023-03-13T16:51:41;100058.94;;;13.32;43.36
75972;BME280;64651;47.540;19.088;2023-03-13T16:56:44;100048.56;;;13.24;43.78
75972;BME280;64651;47.540;19.088;2023-03-13T17:01:46;100047.16;;;13.27;43.82
75972;BME280;64651;47.540;19.088;2023-03-13T17:06:48;100057.50;;;13.35;43.52
75972;BME280;64651;47.540;19.088;2023-03-13T17:11:50;100062.62;;;13.28;43.75
75972;BME280;64651;47.540;19.088;2023-03-13T17:17:26;100049.09;;;13.26;43.64
75972;BME280;64651;47.540;19.088;2023-03-13T17:22:29;100063.22;;;13.25;43.69
75972;BME280;64651;47.540;19.088;2023-03-13T17:27:33;100065.88;;;13.16;43.84
75972;BME280;64651;47.540;19.088;2023-03-13T17:32:35;100069.50;;;12.98;44.45
75972;BME280;64651;47.540;19.088;2023-03-13T17:37:42;100070.44;;;12.75;45.18
75972;BME280;64651;47.540;19.088;2023-03-13T17:42:45;100073.28;;;12.70;45.29
75972;BME280;64651;47.540;19.088;2023-03-13T17:47:47;100077.56;;;12.62;45.18
75972;BME280;64651;47.540;19.088;2023-03-13T17:52:56;100070.56;;;12.51;45.49
75972;BME280;64651;47.540;19.088;2023-03-13T17:57:59;100072.38;;;12.23;46.18
75972;BME280;64651;47.540;19.088;2023-03-13T18:03:01;100074.47;;;12.12;46.55
75972;BME280;64651;47.540;19.088;2023-03-13T18:08:17;100068.94;;;11.94;47.10
75972;BME280;64651;47.540;19.088;2023-03-13T18:13:19;100063.53;;;11.84;47.35
75972;BME280;64651;47.540;19.088;2023-03-13T18:18:22;100062.06;;;11.91;47.13
75972;BME280;64651;47.540;19.088;2023-03-13T18:23:24;100045.75;;;11.76;47.50
75972;BME280;64651;47.540;19.088;2023-03-13T18:28:26;100052.72;;;11.68;47.72
75972;BME280;64651;47.540;19.088;2023-03-13T18:33:28;100045.47;;;11.30;48.55
75972;BME280;64651;47.540;19.088;2023-03-13T18:38:30;100039.19;;;11.01;49.49
75972;BME280;64651;47.540;19.088;2023-03-13T18:43:33;100040.19;;;10.81;50.00
75972;BME280;64651;47.540;19.088;2023-03-13T18:48:35;100029.94;;;10.86;50.05
75972;BME280;64651;47.540;19.088;2023-03-13T18:53:38;100021.75;;;10.81;50.39
75972;BME280;64651;47.540;19.088;2023-03-13T18:58:40;100011.03;;;11.09;49.68
75972;BME280;64651;47.540;19.088;2023-03-13T19:03:43;100013.78;;;11.09;49.71
75972;BME280;64651;47.540;19.088;2023-03-13T19:08:46;100013.97;;;10.88;50.24
75972;BME280;64651;47.540;19.088;2023-03-13T19:13:49;100002.81;;;11.04;49.96
75972;BME280;64651;47.540;19.088;2023-03-13T19:18:51;99998.91;;;10.81;50.34
75972;BME280;64651;47.540;19.088;2023-03-13T19:23:54;99989.88;;;10.75;50.40
75972;BME280;64651;47.540;19.088;2023-03-13T19:28:58;99978.63;;;11.01;49.11
75972;BME280;64651;47.540;19.088;2023-03-13T19:34:00;99979.31;;;10.87;49.41
75972;BME280;64651;47.540;19.088;2023-03-13T19:39:04;99977.31;;;10.93;49.07
75972;BME280;64651;47.540;19.088;2023-03-13T19:44:11;99977.44;;;10.83;49.45
75972;BME280;64651;47.540;19.088;2023-03-13T19:49:18;99974.81;;;10.73;49.65
75972;BME280;64651;47.540;19.088;2023-03-13T19:54:20;99973.00;;;10.58;50.26
75972;BME280;64651;47.540;19.088;2023-03-13T19:59:25;99960.56;;;10.37;50.97
75972;BME280;64651;47.540;19.088;2023-03-13T20:04:32;99968.06;;;10.26;51.18
75972;BME280;64651;47.540;19.088;2023-03-13T20:09:35;99982.19;;;10.48;49.99
75972;BME280;64651;47.540;19.088;2023-03-13T20:14:37;99976.38;;;10.50;49.58
75972;BME280;64651;47.540;19.088;2023-03-13T20:19:40;99971.69;;;10.22;50.14
75972;BME280;64651;47.540;19.088;2023-03-13T20:24:42;99959.59;;;10.23;49.50
75972;BME280;64651;47.540;19.088;2023-03-13T20:29:44;99967.59;;;10.14;49.35
75972;BME280;64651;47.540;19.088;2023-03-13T20:34:46;99950.09;;;10.05;49.28
75972;BME280;64651;47.540;19.088;2023-03-13T20:39:48;99950.03;;;10.10;48.47
75972;BME280;64651;47.540;19.088;2023-03-13T20:44:51;99955.41;;;9.91;48.80
75972;BME280;64651;47.540;19.088;2023-03-13T20:49:53;99925.72;;;9.93;47.72
75972;BME280;64651;47.540;19.088;2023-03-13T20:54:55;99913.78;;;9.74;47.81
75972;BME280;64651;47.540;19.088;2023-03-13T20:59:57;99903.34;;;9.71;47.08
75972;BME280;64651;47.540;19.088;2023-03-13T21:04:59;99901.75;;;9.65;46.86
75972;BME280;64651;47.540;19.088;2023-03-13T21:10:02;99902.19;;;9.77;45.64
75972;BME280;64651;47.540;19.088;2023-03-13T21:15:06;99891.28;;;9.33;46.63
75972;BME280;64651;47.540;19.088;2023-03-13T21:20:09;99853.56;;;9.44;45.50
75972;BME280;64651;47.540;19.088;2023-03-13T21:25:13;99863.00;;;9.27;46.27
75972;BME280;64651;47.540;19.088;2023-03-13T21:30:18;99861.72;;;9.10;46.79
75972;BME280;64651;47.540;19.088;2023-03-13T21:35:20;99847.53;;;8.98;47.56
75972;BME280;64651;47.540;19.088;2023-03-13T21:40:23;99835.38;;;8.65;48.82
75972;BME280;64651;47.540;19.088;2023-03-13T21:45:25;99835.47;;;8.34;49.76
75972;BME280;64651;47.540;19.088;2023-03-13T21:50:27;99835.78;;;8.07;50.71
75972;BME280;64651;47.540;19.088;2023-03-13T21:55:29;99828.69;;;7.96;51.35
75972;BME280;64651;47.540;19.088;2023-03-13T22:00:36;99832.00;;;7.73;51.91
75972;BME280;64651;47.540;19.088;2023-03-13T22:05:42;99824.03;;;7.46;52.93
75972;BME280;64651;47.540;19.088;2023-03-13T22:10:50;99814.72;;;7.62;51.57
75972;BME280;64651;47.540;19.088;2023-03-13T22:15:53;99805.94;;;7.15;54.17
75972;BME280;64651;47.540;19.088;2023-03-13T22:20:57;99805.38;;;7.03;54.07
75972;BME280;64651;47.540;19.088;2023-03-13T22:25:59;99798.31;;;7.17;52.27
75972;BME280;64651;47.540;19.088;2023-03-13T22:31:03;99787.09;;;7.54;49.97
75972;BME280;64651;47.540;19.088;2023-03-13T22:36:07;99789.81;;;7.84;48.30
75972;BME280;64651;47.540;19.088;2023-03-13T22:41:11;99786.75;;;7.96;47.79
75972;BME280;64651;47.540;19.088;2023-03-13T22:46:13;99769.25;;;7.92;47.85
75972;BME280;64651;47.540;19.088;2023-03-13T22:51:16;99748.97;;;7.98;47.60
75972;BME280;64651;47.540;19.088;2023-03-13T22:56:18;99752.28;;;7.85;48.13
75972;BME280;64651;47.540;19.088;2023-03-13T23:01:20;99755.84;;;7.80;48.37
75972;BME280;64651;47.540;19.088;2023-03-13T23:06:24;99750.63;;;7.99;48.11
75972;BME280;64651;47.540;19.088;2023-03-13T23:11:26;99750.63;;;7.89;48.69
75972;BME280;64651;47.540;19.088;2023-03-13T23:16:29;99730.91;;;7.92;48.60
75972;BME280;64651;47.540;19.088;2023-03-13T23:21:31;99724.59;;;7.96;48.72
75972;BME280;64651;47.540;19.088;2023-03-13T23:26:34;99713.25;;;8.18;48.43
75972;BME280;64651;47.540;19.088;2023-03-13T23:31:36;99719.03;;;8.17;48.56
75972;BME280;64651;47.540;19.088;2023-03-13T23:36:41;99712.75;;;8.06;48.97
75972;BME280;64651;47.540;19.088;2023-03-13T23:41:43;99708.69;;;7.93;49.31
75972;BME280;64651;47.540;19.088;2023-03-13T23:46:45;99708.47;;;7.80;49.90
75972;BME280;64651;47.540;19.088;2023-03-13T23:51:47;99706.78;;;7.94;49.53
75972;BME280;64651;47.540;19.088;2023-03-13T23:56:49;99702.09;;;7.99;49.46
